sensor_id;sensor_type;location;lat;lon;timestamp;P1;durP1;ratioP1;P2;durP2;ratioP2
47053;SDS011;32811;52.382;5.270;2022-08-19T00:01:57;7.45;;;4.60;;
47053;SDS011;32811;52.382;5.270;2022-08-19T00:04:26;7.68;;;4.57;;
47053;SDS011;32811;52.382;5.270;2022-08-19T00:06:55;5.13;;;4.63;;
47053;SDS011;32811;52.382;5.270;2022-08-19T00:09:23;7.13;;;5.50;;
47053;SDS011;32811;52.382;5.270;2022-08-19T00:11:51;6.50;;;4.50;;
47053;SDS011;32811;52.382;5.270;2022-08-19T00:14:19;5.53;;;4.93;;
47053;SDS011;32811;52.382;5.270;2022-08-19T00:16:47;6.25;;;4.70;;
47053;SDS011;32811;52.382;5.270;2022-08-19T00:19:15;4.93;;;4.53;;
47053;SDS011;32811;52.382;5.270;2022-08-19T00:21:42;5.00;;;4.53;;
47053;SDS011;32811;52.382;5.270;2022-08-19T00:24:10;4.80;;;4.30;;
47053;SDS011;32811;52.382;5.270;2022-08-19T00:26:39;4.80;;;4.30;;
47053;SDS011;32811;52.382;5.270;2022-08-19T00:29:08;4.38;;;3.92;;
47053;SDS011;32811;52.382;5.270;2022-08-19T00:31:37;4.35;;;3.67;;
47053;SDS011;32811;52.382;5.270;2022-08-19T00:34:07;4.45;;;4.05;;
47053;SDS011;32811;52.382;5.270;2022-08-19T00:36:34;5.03;;;4.10;;
47053;SDS011;32811;52.382;5.270;2022-08-19T00:39:01;5.90;;;3.83;;
47053;SDS011;32811;52.382;5.270;2022-08-19T00:41:28;4.05;;;3.75;;
47053;SDS011;32811;52.382;5.270;2022-08-19T00:44:09;4.93;;;3.97;;
47053;SDS011;32811;52.382;5.270;2022-08-19T00:46:39;4.35;;;3.95;;
47053;SDS011;32811;52.382;5.270;2022-08-19T00:49:10;5.18;;;4.43;;
47053;SDS011;32811;52.382;5.270;2022-08-19T00:51:41;5.20;;;4.15;;
47053;SDS011;32811;52.382;5.270;2022-08-19T00:54:10;10.15;;;4.25;;
47053;SDS011;32811;52.382;5.270;2022-08-19T00:56:37;8.15;;;5.18;;
47053;SDS011;32811;52.382;5.270;2022-08-19T00:59:07;5.32;;;4.80;;
47053;SDS011;32811;52.382;5.270;2022-08-19T01:01:39;6.05;;;5.55;;
47053;SDS011;32811;52.382;5.270;2022-08-19T01:04:07;6.47;;;5.57;;
47053;SDS011;32811;52.382;5.270;2022-08-19T01:06:35;6.80;;;6.00;;
47053;SDS011;32811;52.382;5.270;2022-08-19T01:09:03;7.05;;;5.88;;
47053;SDS011;32811;52.382;5.270;2022-08-19T01:11:31;6.13;;;5.60;;
47053;SDS011;32811;52.382;5.270;2022-08-19T01:14:01;7.13;;;5.68;;
47053;SDS011;32811;52.382;5.270;2022-08-19T01:16:29;6.80;;;6.00;;
47053;SDS011;32811;52.382;5.270;2022-08-19T01:18:57;6.07;;;5.53;;
47053;SDS011;32811;52.382;5.270;2022-08-19T01:21:44;5.57;;;5.05;;
47053;SDS011;32811;52.382;5.270;2022-08-19T01:24:18;5.85;;;5.35;;
47053;SDS011;32811;52.382;5.270;2022-08-19T01:26:46;6.70;;;5.00;;
47053;SDS011;32811;52.382;5.270;2022-08-19T01:29:14;5.57;;;4.95;;
47053;SDS011;32811;52.382;5.270;2022-08-19T01:31:40;7.13;;;5.22;;
47053;SDS011;32811;52.382;5.270;2022-08-19T01:34:07;5.70;;;5.20;;
47053;SDS011;32811;52.382;5.270;2022-08-19T01:36:36;5.60;;;5.07;;
47053;SDS011;32811;52.382;5.270;2022-08-19T01:39:06;6.93;;;5.57;;
47053;SDS011;32811;52.382;5.270;2022-08-19T01:41:36;6.13;;;5.53;;
47053;SDS011;32811;52.382;5.270;2022-08-19T01:44:03;6.10;;;4.43;;
47053;SDS011;32811;52.382;5.270;2022-08-19T01:46:45;5.82;;;5.32;;
47053;SDS011;32811;52.382;5.270;2022-08-19T01:49:14;5.28;;;4.88;;
47053;SDS011;32811;52.382;5.270;2022-08-19T01:51:43;5.90;;;4.93;;
47053;SDS011;32811;52.382;5.270;2022-08-19T01:54:10;6.72;;;6.13;;
47053;SDS011;32811;52.382;5.270;2022-08-19T01:56:49;5.95;;;5.45;;
47053;SDS011;32811;52.382;5.270;2022-08-19T01:59:17;7.07;;;5.95;;
47053;SDS011;32811;52.382;5.270;2022-08-19T02:01:47;7.20;;;5.43;;
47053;SDS011;32811;52.382;5.270;2022-08-19T02:04:13;7.47;;;5.53;;
47053;SDS011;32811;52.382;5.270;2022-08-19T02:06:40;7.07;;;5.93;;
47053;SDS011;32811;52.382;5.270;2022-08-19T02:09:07;6.55;;;4.78;;
47053;SDS011;32811;52.382;5.270;2022-08-19T02:11:35;7.65;;;5.45;;
47053;SDS011;32811;52.382;5.270;2022-08-19T02:14:03;5.75;;;5.22;;
47053;SDS011;32811;52.382;5.270;2022-08-19T02:16:32;10.20;;;4.95;;
47053;SDS011;32811;52.382;5.270;2022-08-19T02:18:59;6.30;;;5.65;;
47053;SDS011;32811;52.382;5.270;2022-08-19T02:21:29;5.22;;;4.82;;
47053;SDS011;32811;52.382;5.270;2022-08-19T02:23:56;5.80;;;5.30;;
47053;SDS011;32811;52.382;5.270;2022-08-19T02:26:23;5.05;;;4.65;;
47053;SDS011;32811;52.382;5.270;2022-08-19T02:28:52;5.72;;;4.93;;
47053;SDS011;32811;52.382;5.270;2022-08-19T02:31:20;5.20;;;4.72;;
47053;SDS011;32811;52.382;5.270;2022-08-19T02:33:50;5.28;;;4.78;;
47053;SDS011;32811;52.382;5.270;2022-08-19T02:36:21;5.82;;;5.28;;
47053;SDS011;32811;52.382;5.270;2022-08-19T02:38:50;6.05;;;5.10;;
47053;SDS011;32811;52.382;5.270;2022-08-19T02:41:26;5.45;;;4.95;;
47053;SDS011;32811;52.382;5.270;2022-08-19T02:43:54;7.15;;;5.30;;
47053;SDS011;32811;52.382;5.270;2022-08-19T02:46:45;6.68;;;4.85;;
47053;SDS011;32811;52.382;5.270;2022-08-19T02:49:12;6.50;;;5.93;;
47053;SDS011;32811;52.382;5.270;2022-08-19T02:51:42;7.43;;;5.35;;
47053;SDS011;32811;52.382;5.270;2022-08-19T02:54:11;7.28;;;6.57;;
47053;SDS011;32811;52.382;5.270;2022-08-19T02:56:39;16.77;;;9.13;;
47053;SDS011;32811;52.382;5.270;2022-08-19T02:59:07;7.85;;;6.88;;
47053;SDS011;32811;52.382;5.270;2022-08-19T03:01:37;8.70;;;7.85;;
47053;SDS011;32811;52.382;5.270;2022-08-19T03:04:06;7.32;;;6.72;;
47053;SDS011;32811;52.382;5.270;2022-08-19T03:06:36;7.78;;;7.07;;
47053;SDS011;32811;52.382;5.270;2022-08-19T03:09:03;7.53;;;6.75;;
47053;SDS011;32811;52.382;5.270;2022-08-19T03:11:31;7.72;;;7.00;;
47053;SDS011;32811;52.382;5.270;2022-08-19T03:13:59;7.28;;;6.57;;
47053;SDS011;32811;52.382;5.270;2022-08-19T03:16:28;7.40;;;6.70;;
47053;SDS011;32811;52.382;5.270;2022-08-19T03:18:59;7.28;;;6.68;;
47053;SDS011;32811;52.382;5.270;2022-08-19T03:21:27;7.13;;;6.47;;
47053;SDS011;32811;52.382;5.270;2022-08-19T03:23:57;10.35;;;7.25;;
47053;SDS011;32811;52.382;5.270;2022-08-19T03:26:25;7.25;;;6.65;;
47053;SDS011;32811;52.382;5.270;2022-08-19T03:28:52;8.63;;;6.72;;
47053;SDS011;32811;52.382;5.270;2022-08-19T03:31:24;7.82;;;7.05;;
47053;SDS011;32811;52.382;5.270;2022-08-19T03:34:16;7.95;;;7.15;;
47053;SDS011;32811;52.382;5.270;2022-08-19T03:36:54;15.52;;;8.40;;
47053;SDS011;32811;52.382;5.270;2022-08-19T03:39:22;10.18;;;8.13;;
47053;SDS011;32811;52.382;5.270;2022-08-19T03:41:51;10.00;;;8.90;;
47053;SDS011;32811;52.382;5.270;2022-08-19T03:44:38;11.10;;;9.30;;
47053;SDS011;32811;52.382;5.270;2022-08-19T03:47:05;9.80;;;8.85;;
47053;SDS011;32811;52.382;5.270;2022-08-19T03:49:32;16.20;;;10.07;;
47053;SDS011;32811;52.382;5.270;2022-08-19T03:52:02;9.55;;;8.65;;
47053;SDS011;32811;52.382;5.270;2022-08-19T03:54:31;11.48;;;10.32;;
47053;SDS011;32811;52.382;5.270;2022-08-19T03:56:58;9.65;;;8.77;;
47053;SDS011;32811;52.382;5.270;2022-08-19T03:59:30;13.50;;;10.85;;
47053;SDS011;32811;52.382;5.270;2022-08-19T04:02:00;10.40;;;9.30;;
47053;SDS011;32811;52.382;5.270;2022-08-19T04:04:29;13.93;;;11.32;;
47053;SDS011;32811;52.382;5.270;2022-08-19T04:06:57;10.82;;;9.93;;
47053;SDS011;32811;52.382;5.270;2022-08-19T04:09:24;13.18;;;10.63;;
47053;SDS011;32811;52.382;5.270;2022-08-19T04:11:54;12.45;;;11.25;;
47053;SDS011;32811;52.382;5.270;2022-08-19T04:14:23;13.60;;;12.30;;
47053;SDS011;32811;52.382;5.270;2022-08-19T04:16:52;11.60;;;10.40;;
47053;SDS011;32811;52.382;5.270;2022-08-19T04:19:19;13.55;;;10.98;;
47053;SDS011;32811;52.382;5.270;2022-08-19T04:21:47;12.38;;;9.82;;
47053;SDS011;32811;52.382;5.270;2022-08-19T04:24:16;10.23;;;9.23;;
47053;SDS011;32811;52.382;5.270;2022-08-19T04:26:45;11.40;;;10.02;;
47053;SDS011;32811;52.382;5.270;2022-08-19T04:29:16;11.90;;;10.70;;
47053;SDS011;32811;52.382;5.270;2022-08-19T04:31:45;12.13;;;10.63;;
47053;SDS011;32811;52.382;5.270;2022-08-19T04:34:12;16.13;;;11.10;;
47053;SDS011;32811;52.382;5.270;2022-08-19T04:36:42;11.48;;;10.38;;
47053;SDS011;32811;52.382;5.270;2022-08-19T04:39:12;10.88;;;9.77;;
47053;SDS011;32811;52.382;5.270;2022-08-19T04:41:43;12.27;;;9.90;;
47053;SDS011;32811;52.382;5.270;2022-08-19T04:44:30;10.38;;;9.30;;
47053;SDS011;32811;52.382;5.270;2022-08-19T04:47:01;12.45;;;9.80;;
47053;SDS011;32811;52.382;5.270;2022-08-19T04:49:36;11.85;;;9.77;;
47053;SDS011;32811;52.382;5.270;2022-08-19T04:52:03;10.80;;;9.70;;
47053;SDS011;32811;52.382;5.270;2022-08-19T04:54:30;10.73;;;9.73;;
47053;SDS011;32811;52.382;5.270;2022-08-19T04:57:05;11.40;;;10.02;;
47053;SDS011;32811;52.382;5.270;2022-08-19T04:59:34;10.60;;;9.60;;
47053;SDS011;32811;52.382;5.270;2022-08-19T05:02:01;14.48;;;11.35;;
47053;SDS011;32811;52.382;5.270;2022-08-19T05:04:27;13.43;;;10.13;;
47053;SDS011;32811;52.382;5.270;2022-08-19T05:06:58;11.70;;;10.50;;
47053;SDS011;32811;52.382;5.270;2022-08-19T05:09:27;11.25;;;10.20;;
47053;SDS011;32811;52.382;5.270;2022-08-19T05:12:15;12.70;;;10.68;;
47053;SDS011;32811;52.382;5.270;2022-08-19T05:14:42;10.55;;;9.50;;
47053;SDS011;32811;52.382;5.270;2022-08-19T05:17:10;12.98;;;10.05;;
47053;SDS011;32811;52.382;5.270;2022-08-19T05:19:53;11.60;;;9.77;;
47053;SDS011;32811;52.382;5.270;2022-08-19T05:22:38;10.25;;;9.35;;
47053;SDS011;32811;52.382;5.270;2022-08-19T05:25:06;11.65;;;10.48;;
47053;SDS011;32811;52.382;5.270;2022-08-19T05:27:39;12.07;;;10.85;;
47053;SDS011;32811;52.382;5.270;2022-08-19T05:30:06;10.68;;;9.35;;
47053;SDS011;32811;52.382;5.270;2022-08-19T05:32:33;13.55;;;12.27;;
47053;SDS011;32811;52.382;5.270;2022-08-19T05:35:00;11.25;;;10.25;;
47053;SDS011;32811;52.382;5.270;2022-08-19T05:37:26;12.50;;;11.00;;
47053;SDS011;32811;52.382;5.270;2022-08-19T05:39:54;10.65;;;9.57;;
47053;SDS011;32811;52.382;5.270;2022-08-19T05:42:21;11.50;;;10.35;;
47053;SDS011;32811;52.382;5.270;2022-08-19T05:44:49;12.50;;;11.05;;
47053;SDS011;32811;52.382;5.270;2022-08-19T05:47:16;12.38;;;11.05;;
47053;SDS011;32811;52.382;5.270;2022-08-19T05:49:46;15.95;;;11.73;;
47053;SDS011;32811;52.382;5.270;2022-08-19T05:52:14;12.52;;;11.13;;
47053;SDS011;32811;52.382;5.270;2022-08-19T05:54:44;12.63;;;10.75;;
47053;SDS011;32811;52.382;5.270;2022-08-19T05:57:17;13.07;;;10.77;;
47053;SDS011;32811;52.382;5.270;2022-08-19T05:59:44;13.45;;;12.05;;
47053;SDS011;32811;52.382;5.270;2022-08-19T06:02:18;16.77;;;14.70;;
47053;SDS011;32811;52.382;5.270;2022-08-19T06:04:44;21.65;;;16.55;;
47053;SDS011;32811;52.382;5.270;2022-08-19T06:07:11;22.67;;;16.40;;
47053;SDS011;32811;52.382;5.270;2022-08-19T06:09:38;20.15;;;16.40;;
47053;SDS011;32811;52.382;5.270;2022-08-19T06:12:08;20.67;;;16.17;;
47053;SDS011;32811;52.382;5.270;2022-08-19T06:14:35;24.77;;;18.48;;
47053;SDS011;32811;52.382;5.270;2022-08-19T06:17:07;25.08;;;20.27;;
47053;SDS011;32811;52.382;5.270;2022-08-19T06:19:34;23.00;;;17.58;;
47053;SDS011;32811;52.382;5.270;2022-08-19T06:22:06;22.20;;;18.30;;
47053;SDS011;32811;52.382;5.270;2022-08-19T06:24:33;27.38;;;18.73;;
47053;SDS011;32811;52.382;5.270;2022-08-19T06:27:01;31.30;;;20.90;;
47053;SDS011;32811;52.382;5.270;2022-08-19T06:29:29;25.83;;;19.52;;
47053;SDS011;32811;52.382;5.270;2022-08-19T06:31:57;29.65;;;19.73;;
47053;SDS011;32811;52.382;5.270;2022-08-19T06:34:26;34.55;;;20.13;;
47053;SDS011;32811;52.382;5.270;2022-08-19T06:36:56;30.20;;;20.23;;
47053;SDS011;32811;52.382;5.270;2022-08-19T06:39:25;28.08;;;18.52;;
47053;SDS011;32811;52.382;5.270;2022-08-19T06:41:54;29.55;;;18.92;;
47053;SDS011;32811;52.382;5.270;2022-08-19T06:44:25;36.20;;;20.05;;
47053;SDS011;32811;52.382;5.270;2022-08-19T06:46:57;33.25;;;20.00;;
47053;SDS011;32811;52.382;5.270;2022-08-19T06:49:24;30.98;;;19.88;;
47053;SDS011;32811;52.382;5.270;2022-08-19T06:51:51;38.58;;;21.40;;
47053;SDS011;32811;52.382;5.270;2022-08-19T06:54:18;33.20;;;21.88;;
47053;SDS011;32811;52.382;5.270;2022-08-19T06:56:45;38.70;;;22.85;;
47053;SDS011;32811;52.382;5.270;2022-08-19T06:59:17;39.60;;;22.80;;
47053;SDS011;32811;52.382;5.270;2022-08-19T07:01:50;36.83;;;21.73;;
47053;SDS011;32811;52.382;5.270;2022-08-19T07:04:19;39.67;;;22.63;;
47053;SDS011;32811;52.382;5.270;2022-08-19T07:06:50;43.47;;;23.33;;
47053;SDS011;32811;52.382;5.270;2022-08-19T07:09:23;38.92;;;23.98;;
47053;SDS011;32811;52.382;5.270;2022-08-19T07:11:51;38.30;;;23.10;;
47053;SDS011;32811;52.382;5.270;2022-08-19T07:14:21;46.85;;;24.08;;
47053;SDS011;32811;52.382;5.270;2022-08-19T07:16:51;42.30;;;25.08;;
47053;SDS011;32811;52.382;5.270;2022-08-19T07:19:21;37.65;;;23.77;;
47053;SDS011;32811;52.382;5.270;2022-08-19T07:21:50;40.92;;;24.38;;
47053;SDS011;32811;52.382;5.270;2022-08-19T07:24:22;39.08;;;23.80;;
47053;SDS011;32811;52.382;5.270;2022-08-19T07:26:50;40.55;;;23.92;;
47053;SDS011;32811;52.382;5.270;2022-08-19T07:29:19;41.78;;;25.35;;
47053;SDS011;32811;52.382;5.270;2022-08-19T07:31:53;45.72;;;27.27;;
47053;SDS011;32811;52.382;5.270;2022-08-19T07:34:26;48.55;;;26.52;;
47053;SDS011;32811;52.382;5.270;2022-08-19T07:36:54;49.22;;;26.17;;
47053;SDS011;32811;52.382;5.270;2022-08-19T07:39:22;47.42;;;27.00;;
47053;SDS011;32811;52.382;5.270;2022-08-19T07:41:52;45.90;;;25.50;;
47053;SDS011;32811;52.382;5.270;2022-08-19T07:44:20;50.20;;;26.23;;
47053;SDS011;32811;52.382;5.270;2022-08-19T07:46:48;49.00;;;25.13;;
47053;SDS011;32811;52.382;5.270;2022-08-19T07:49:18;46.08;;;25.20;;
47053;SDS011;32811;52.382;5.270;2022-08-19T07:51:47;44.05;;;24.02;;
47053;SDS011;32811;52.382;5.270;2022-08-19T07:54:19;37.85;;;22.85;;
47053;SDS011;32811;52.382;5.270;2022-08-19T07:56:47;39.35;;;22.33;;
47053;SDS011;32811;52.382;5.270;2022-08-19T07:59:17;38.78;;;21.80;;
47053;SDS011;32811;52.382;5.270;2022-08-19T08:01:46;32.92;;;20.02;;
47053;SDS011;32811;52.382;5.270;2022-08-19T08:04:13;32.78;;;21.20;;
47053;SDS011;32811;52.382;5.270;2022-08-19T08:06:59;42.00;;;22.20;;
47053;SDS011;32811;52.382;5.270;2022-08-19T08:09:44;38.05;;;23.48;;
47053;SDS011;32811;52.382;5.270;2022-08-19T08:12:21;45.10;;;23.92;;
47053;SDS011;32811;52.382;5.270;2022-08-19T08:15:02;39.45;;;22.35;;
47053;SDS011;32811;52.382;5.270;2022-08-19T08:17:37;39.17;;;21.70;;
47053;SDS011;32811;52.382;5.270;2022-08-19T08:20:17;41.53;;;23.45;;
47053;SDS011;32811;52.382;5.270;2022-08-19T08:22:45;35.22;;;21.15;;
47053;SDS011;32811;52.382;5.270;2022-08-19T08:25:32;43.03;;;23.17;;
47053;SDS011;32811;52.382;5.270;2022-08-19T08:28:00;42.45;;;22.48;;
47053;SDS011;32811;52.382;5.270;2022-08-19T08:30:29;39.22;;;22.52;;
47053;SDS011;32811;52.382;5.270;2022-08-19T08:32:59;35.42;;;20.80;;
47053;SDS011;32811;52.382;5.270;2022-08-19T08:35:28;31.17;;;20.75;;
47053;SDS011;32811;52.382;5.270;2022-08-19T08:37:54;30.02;;;19.88;;
47053;SDS011;32811;52.382;5.270;2022-08-19T08:43:18;31.90;;;20.02;;
47053;SDS011;32811;52.382;5.270;2022-08-19T08:51:59;35.83;;;20.20;;
47053;SDS011;32811;52.382;5.270;2022-08-19T08:54:32;39.15;;;21.10;;
47053;SDS011;32811;52.382;5.270;2022-08-19T08:57:04;31.92;;;20.70;;
47053;SDS011;32811;52.382;5.270;2022-08-19T08:59:38;36.42;;;22.23;;
47053;SDS011;32811;52.382;5.270;2022-08-19T09:02:07;36.58;;;19.73;;
47053;SDS011;32811;52.382;5.270;2022-08-19T09:04:35;35.33;;;20.38;;
47053;SDS011;32811;52.382;5.270;2022-08-19T09:07:13;29.23;;;19.77;;
47053;SDS011;32811;52.382;5.270;2022-08-19T09:10:07;32.83;;;20.38;;
47053;SDS011;32811;52.382;5.270;2022-08-19T09:15:20;34.30;;;20.00;;
47053;SDS011;32811;52.382;5.270;2022-08-19T09:18:02;31.20;;;20.05;;
47053;SDS011;32811;52.382;5.270;2022-08-19T09:20:32;29.05;;;17.63;;
47053;SDS011;32811;52.382;5.270;2022-08-19T09:22:59;28.83;;;17.23;;
47053;SDS011;32811;52.382;5.270;2022-08-19T09:25:26;24.17;;;17.67;;
47053;SDS011;32811;52.382;5.270;2022-08-19T09:27:54;26.02;;;16.85;;
47053;SDS011;32811;52.382;5.270;2022-08-19T09:30:29;28.05;;;16.45;;
47053;SDS011;32811;52.382;5.270;2022-08-19T09:33:01;23.80;;;16.45;;
47053;SDS011;32811;52.382;5.270;2022-08-19T09:35:28;27.95;;;16.70;;
47053;SDS011;32811;52.382;5.270;2022-08-19T09:37:57;32.28;;;15.88;;
47053;SDS011;32811;52.382;5.270;2022-08-19T09:40:28;24.55;;;17.00;;
47053;SDS011;32811;52.382;5.270;2022-08-19T09:43:03;22.58;;;15.55;;
47053;SDS011;32811;52.382;5.270;2022-08-19T09:45:38;27.13;;;15.60;;
47053;SDS011;32811;52.382;5.270;2022-08-19T09:48:04;25.88;;;15.75;;
47053;SDS011;32811;52.382;5.270;2022-08-19T09:50:32;26.33;;;16.50;;
47053;SDS011;32811;52.382;5.270;2022-08-19T09:53:00;26.38;;;17.52;;
47053;SDS011;32811;52.382;5.270;2022-08-19T09:55:26;21.35;;;14.77;;
47053;SDS011;32811;52.382;5.270;2022-08-19T09:57:58;25.05;;;14.98;;
47053;SDS011;32811;52.382;5.270;2022-08-19T10:00:26;19.60;;;14.52;;
47053;SDS011;32811;52.382;5.270;2022-08-19T10:02:53;24.23;;;14.77;;
47053;SDS011;32811;52.382;5.270;2022-08-19T10:05:19;25.90;;;15.15;;
47053;SDS011;32811;52.382;5.270;2022-08-19T10:08:07;24.60;;;15.43;;
47053;SDS011;32811;52.382;5.270;2022-08-19T10:10:39;19.88;;;14.55;;
47053;SDS011;32811;52.382;5.270;2022-08-19T10:13:12;22.23;;;16.20;;
47053;SDS011;32811;52.382;5.270;2022-08-19T10:15:41;21.88;;;16.58;;
47053;SDS011;32811;52.382;5.270;2022-08-19T10:18:14;26.75;;;19.58;;
47053;SDS011;32811;52.382;5.270;2022-08-19T10:20:44;27.70;;;17.60;;
47053;SDS011;32811;52.382;5.270;2022-08-19T10:23:18;23.63;;;17.30;;
47053;SDS011;32811;52.382;5.270;2022-08-19T10:25:47;25.30;;;18.75;;
47053;SDS011;32811;52.382;5.270;2022-08-19T10:28:14;38.30;;;21.45;;
47053;SDS011;32811;52.382;5.270;2022-08-19T10:30:40;27.75;;;21.23;;
47053;SDS011;32811;52.382;5.270;2022-08-19T10:33:08;28.15;;;18.75;;
47053;SDS011;32811;52.382;5.270;2022-08-19T10:35:36;30.42;;;21.35;;
47053;SDS011;32811;52.382;5.270;2022-08-19T10:38:22;32.60;;;22.77;;
47053;SDS011;32811;52.382;5.270;2022-08-19T10:40:58;29.02;;;20.23;;
47053;SDS011;32811;52.382;5.270;2022-08-19T10:43:32;29.27;;;18.88;;
47053;SDS011;32811;52.382;5.270;2022-08-19T10:46:06;27.75;;;18.77;;
47053;SDS011;32811;52.382;5.270;2022-08-19T10:48:42;22.70;;;17.55;;
47053;SDS011;32811;52.382;5.270;2022-08-19T10:51:10;21.80;;;16.45;;
47053;SDS011;32811;52.382;5.270;2022-08-19T10:53:57;26.40;;;17.38;;
47053;SDS011;32811;52.382;5.270;2022-08-19T10:56:24;23.98;;;17.60;;
47053;SDS011;32811;52.382;5.270;2022-08-19T10:59:10;24.02;;;17.33;;
47053;SDS011;32811;52.382;5.270;2022-08-19T11:01:40;21.23;;;16.50;;
47053;SDS011;32811;52.382;5.270;2022-08-19T11:04:08;21.33;;;15.68;;
47053;SDS011;32811;52.382;5.270;2022-08-19T11:06:37;24.67;;;17.42;;
47053;SDS011;32811;52.382;5.270;2022-08-19T11:09:05;22.90;;;18.35;;
47053;SDS011;32811;52.382;5.270;2022-08-19T11:11:32;25.58;;;17.40;;
47053;SDS011;32811;52.382;5.270;2022-08-19T11:14:04;25.45;;;18.42;;
47053;SDS011;32811;52.382;5.270;2022-08-19T11:16:31;28.02;;;19.73;;
47053;SDS011;32811;52.382;5.270;2022-08-19T11:18:58;25.52;;;18.95;;
47053;SDS011;32811;52.382;5.270;2022-08-19T11:21:30;24.27;;;17.33;;
47053;SDS011;32811;52.382;5.270;2022-08-19T11:23:59;20.30;;;16.17;;
47053;SDS011;32811;52.382;5.270;2022-08-19T11:26:28;22.25;;;15.48;;
47053;SDS011;32811;52.382;5.270;2022-08-19T11:28:57;22.98;;;15.93;;
47053;SDS011;32811;52.382;5.270;2022-08-19T11:31:26;23.63;;;16.63;;
47053;SDS011;32811;52.382;5.270;2022-08-19T11:33:59;18.20;;;15.48;;
47053;SDS011;32811;52.382;5.270;2022-08-19T11:36:29;19.20;;;13.88;;
47053;SDS011;32811;52.382;5.270;2022-08-19T11:38:57;15.65;;;10.70;;
47053;SDS011;32811;52.382;5.270;2022-08-19T11:41:25;9.93;;;6.82;;
47053;SDS011;32811;52.382;5.270;2022-08-19T11:43:52;9.82;;;6.18;;
47053;SDS011;32811;52.382;5.270;2022-08-19T11:46:22;8.00;;;5.35;;
47053;SDS011;32811;52.382;5.270;2022-08-19T11:48:50;14.57;;;5.43;;
47053;SDS011;32811;52.382;5.270;2022-08-19T11:51:21;13.57;;;6.50;;
47053;SDS011;32811;52.382;5.270;2022-08-19T11:53:51;11.93;;;5.10;;
47053;SDS011;32811;52.382;5.270;2022-08-19T11:56:18;10.85;;;4.30;;
47053;SDS011;32811;52.382;5.270;2022-08-19T11:58:46;11.63;;;3.97;;
47053;SDS011;32811;52.382;5.270;2022-08-19T12:01:15;8.75;;;3.53;;
47053;SDS011;32811;52.382;5.270;2022-08-19T12:03:43;8.73;;;3.35;;
47053;SDS011;32811;52.382;5.270;2022-08-19T12:06:13;7.75;;;3.78;;
47053;SDS011;32811;52.382;5.270;2022-08-19T12:08:41;4.43;;;3.28;;
47053;SDS011;32811;52.382;5.270;2022-08-19T12:11:09;4.93;;;2.80;;
47053;SDS011;32811;52.382;5.270;2022-08-19T12:13:38;6.60;;;2.60;;
47053;SDS011;32811;52.382;5.270;2022-08-19T12:16:08;5.47;;;2.95;;
47053;SDS011;32811;52.382;5.270;2022-08-19T12:18:41;5.78;;;2.60;;
47053;SDS011;32811;52.382;5.270;2022-08-19T12:21:15;4.20;;;2.58;;
47053;SDS011;32811;52.382;5.270;2022-08-19T12:23:44;5.95;;;2.38;;
47053;SDS011;32811;52.382;5.270;2022-08-19T12:26:17;6.13;;;3.13;;
47053;SDS011;32811;52.382;5.270;2022-08-19T12:28:44;8.02;;;3.70;;
47053;SDS011;32811;52.382;5.270;2022-08-19T12:31:10;6.28;;;2.05;;
47053;SDS011;32811;52.382;5.270;2022-08-19T12:33:38;8.80;;;2.20;;
47053;SDS011;32811;52.382;5.270;2022-08-19T12:36:06;3.67;;;1.85;;
47053;SDS011;32811;52.382;5.270;2022-08-19T12:38:35;6.43;;;2.58;;
47053;SDS011;32811;52.382;5.270;2022-08-19T12:41:03;4.55;;;1.98;;
47053;SDS011;32811;52.382;5.270;2022-08-19T12:43:33;5.32;;;1.73;;
47053;SDS011;32811;52.382;5.270;2022-08-19T12:46:04;3.53;;;1.52;;
47053;SDS011;32811;52.382;5.270;2022-08-19T12:48:32;4.68;;;1.50;;
47053;SDS011;32811;52.382;5.270;2022-08-19T12:51:00;5.25;;;1.60;;
47053;SDS011;32811;52.382;5.270;2022-08-19T12:53:33;6.90;;;1.77;;
47053;SDS011;32811;52.382;5.270;2022-08-19T12:56:04;4.25;;;2.13;;
47053;SDS011;32811;52.382;5.270;2022-08-19T12:58:36;3.33;;;1.90;;
47053;SDS011;32811;52.382;5.270;2022-08-19T13:01:10;5.03;;;2.00;;
47053;SDS011;32811;52.382;5.270;2022-08-19T13:03:38;5.15;;;2.80;;
47053;SDS011;32811;52.382;5.270;2022-08-19T13:06:06;5.07;;;1.90;;
47053;SDS011;32811;52.382;5.270;2022-08-19T13:08:34;4.43;;;1.73;;
47053;SDS011;32811;52.382;5.270;2022-08-19T13:11:11;4.22;;;1.80;;
47053;SDS011;32811;52.382;5.270;2022-08-19T13:13:41;4.03;;;2.03;;
47053;SDS011;32811;52.382;5.270;2022-08-19T13:16:09;4.57;;;2.40;;
47053;SDS011;32811;52.382;5.270;2022-08-19T13:18:38;7.95;;;2.47;;
47053;SDS011;32811;52.382;5.270;2022-08-19T13:21:07;6.97;;;3.28;;
47053;SDS011;32811;52.382;5.270;2022-08-19T13:23:35;9.82;;;2.78;;
47053;SDS011;32811;52.382;5.270;2022-08-19T13:26:03;5.57;;;2.67;;
47053;SDS011;32811;52.382;5.270;2022-08-19T13:28:31;3.72;;;2.10;;
47053;SDS011;32811;52.382;5.270;2022-08-19T13:31:18;4.80;;;2.33;;
47053;SDS011;32811;52.382;5.270;2022-08-19T13:34:06;6.50;;;2.42;;
47053;SDS011;32811;52.382;5.270;2022-08-19T13:36:33;3.25;;;1.83;;
47053;SDS011;32811;52.382;5.270;2022-08-19T13:39:00;6.38;;;1.90;;
47053;SDS011;32811;52.382;5.270;2022-08-19T13:41:27;7.15;;;2.00;;
47053;SDS011;32811;52.382;5.270;2022-08-19T13:43:53;3.90;;;2.47;;
47053;SDS011;32811;52.382;5.270;2022-08-19T13:46:20;3.38;;;1.92;;
47053;SDS011;32811;52.382;5.270;2022-08-19T13:48:47;4.13;;;2.30;;
47053;SDS011;32811;52.382;5.270;2022-08-19T13:51:15;3.40;;;2.17;;
47053;SDS011;32811;52.382;5.270;2022-08-19T13:53:43;3.30;;;1.90;;
47053;SDS011;32811;52.382;5.270;2022-08-19T13:56:15;4.18;;;1.90;;
47053;SDS011;32811;52.382;5.270;2022-08-19T13:58:43;6.55;;;1.73;;
47053;SDS011;32811;52.382;5.270;2022-08-19T14:01:10;4.38;;;1.92;;
47053;SDS011;32811;52.382;5.270;2022-08-19T14:03:37;4.03;;;1.70;;
47053;SDS011;32811;52.382;5.270;2022-08-19T14:06:04;4.40;;;1.95;;
47053;SDS011;32811;52.382;5.270;2022-08-19T14:08:31;4.32;;;1.60;;
47053;SDS011;32811;52.382;5.270;2022-08-19T14:10:58;4.88;;;1.55;;
47053;SDS011;32811;52.382;5.270;2022-08-19T14:13:31;3.53;;;1.63;;
47053;SDS011;32811;52.382;5.270;2022-08-19T14:15:59;4.55;;;1.92;;
47053;SDS011;32811;52.382;5.270;2022-08-19T14:18:26;5.15;;;1.73;;
47053;SDS011;32811;52.382;5.270;2022-08-19T14:20:54;4.45;;;1.75;;
47053;SDS011;32811;52.382;5.270;2022-08-19T14:23:21;3.22;;;1.25;;
47053;SDS011;32811;52.382;5.270;2022-08-19T14:25:48;4.15;;;1.58;;
47053;SDS011;32811;52.382;5.270;2022-08-19T14:28:14;2.67;;;1.20;;
47053;SDS011;32811;52.382;5.270;2022-08-19T14:30:42;3.00;;;1.10;;
47053;SDS011;32811;52.382;5.270;2022-08-19T14:33:10;1.75;;;0.93;;
47053;SDS011;32811;52.382;5.270;2022-08-19T14:35:37;2.80;;;1.35;;
47053;SDS011;32811;52.382;5.270;2022-08-19T14:38:05;3.13;;;1.30;;
47053;SDS011;32811;52.382;5.270;2022-08-19T14:40:33;1.38;;;0.70;;
47053;SDS011;32811;52.382;5.270;2022-08-19T14:43:01;1.38;;;0.52;;
47053;SDS011;32811;52.382;5.270;2022-08-19T14:45:33;0.93;;;0.50;;
47053;SDS011;32811;52.382;5.270;2022-08-19T14:48:03;2.13;;;0.47;;
47053;SDS011;32811;52.382;5.270;2022-08-19T14:50:31;1.88;;;0.50;;
47053;SDS011;32811;52.382;5.270;2022-08-19T14:53:03;0.60;;;0.40;;
47053;SDS011;32811;52.382;5.270;2022-08-19T14:55:40;5.53;;;0.73;;
47053;SDS011;32811;52.382;5.270;2022-08-19T14:58:07;2.25;;;0.43;;
47053;SDS011;32811;52.382;5.270;2022-08-19T15:00:54;1.30;;;0.40;;
47053;SDS011;32811;52.382;5.270;2022-08-19T15:03:21;1.38;;;0.50;;